sensor_id;sensor_type;location;lat;lon;timestamp;P1;durP1;ratioP1;P2;durP2;ratioP2
54328;SDS011;40710;51.120;13.136;2024-03-02T00:01:04;44.76;;;43.56;;
54328;SDS011;40710;51.120;13.136;2024-03-02T00:03:28;43.66;;;42.59;;
54328;SDS011;40710;51.120;13.136;2024-03-02T00:05:53;43.26;;;42.37;;
54328;SDS011;40710;51.120;13.136;2024-03-02T00:08:20;43.00;;;42.21;;
54328;SDS011;40710;51.120;13.136;2024-03-02T00:10:49;43.65;;;42.57;;
54328;SDS011;40710;51.120;13.136;2024-03-02T00:13:14;42.71;;;41.82;;
54328;SDS011;40710;51.120;13.136;2024-03-02T00:15:48;42.26;;;41.38;;
54328;SDS011;40710;51.120;13.136;2024-03-02T00:18:20;42.54;;;41.50;;
54328;SDS011;40710;51.120;13.136;2024-03-02T00:20:49;43.65;;;42.47;;
54328;SDS011;40710;51.120;13.136;2024-03-02T00:23:18;42.21;;;41.34;;
54328;SDS011;40710;51.120;13.136;2024-03-02T00:25:44;41.47;;;40.69;;
54328;SDS011;40710;51.120;13.136;2024-03-02T00:28:25;41.97;;;41.22;;
54328;SDS011;40710;51.120;13.136;2024-03-02T00:33:26;42.48;;;41.41;;
54328;SDS011;40710;51.120;13.136;2024-03-02T00:35:54;41.99;;;41.20;;
54328;SDS011;40710;51.120;13.136;2024-03-02T00:38:20;41.59;;;40.51;;
54328;SDS011;40710;51.120;13.136;2024-03-02T00:40:45;42.92;;;41.89;;
54328;SDS011;40710;51.120;13.136;2024-03-02T00:45:54;41.20;;;40.22;;
54328;SDS011;40710;51.120;13.136;2024-03-02T00:48:18;40.99;;;40.07;;
54328;SDS011;40710;51.120;13.136;2024-03-02T00:50:43;41.19;;;40.15;;
54328;SDS011;40710;51.120;13.136;2024-03-02T00:53:11;41.30;;;40.38;;
54328;SDS011;40710;51.120;13.136;2024-03-02T00:55:36;41.19;;;40.30;;
54328;SDS011;40710;51.120;13.136;2024-03-02T00:58:02;41.80;;;40.77;;
54328;SDS011;40710;51.120;13.136;2024-03-02T01:00:26;42.65;;;41.47;;
54328;SDS011;40710;51.120;13.136;2024-03-02T01:02:51;41.96;;;41.17;;
54328;SDS011;40710;51.120;13.136;2024-03-02T01:05:15;41.75;;;41.05;;
54328;SDS011;40710;51.120;13.136;2024-03-02T01:07:40;41.99;;;41.03;;
54328;SDS011;40710;51.120;13.136;2024-03-02T01:10:05;41.74;;;40.56;;
54328;SDS011;40710;51.120;13.136;2024-03-02T01:12:29;41.00;;;40.09;;
54328;SDS011;40710;51.120;13.136;2024-03-02T01:14:54;40.31;;;39.55;;
54328;SDS011;40710;51.120;13.136;2024-03-02T01:17:19;41.11;;;40.08;;
54328;SDS011;40710;51.120;13.136;2024-03-02T01:19:43;39.91;;;38.97;;
54328;SDS011;40710;51.120;13.136;2024-03-02T01:22:08;40.91;;;39.74;;
54328;SDS011;40710;51.120;13.136;2024-03-02T01:24:33;40.03;;;39.10;;
54328;SDS011;40710;51.120;13.136;2024-03-02T01:26:58;40.65;;;39.83;;
54328;SDS011;40710;51.120;13.136;2024-03-02T01:29:22;39.85;;;39.18;;
54328;SDS011;40710;51.120;13.136;2024-03-02T01:31:47;40.62;;;39.65;;
54328;SDS011;40710;51.120;13.136;2024-03-02T01:34:12;39.90;;;39.07;;
54328;SDS011;40710;51.120;13.136;2024-03-02T01:36:36;40.18;;;39.37;;
54328;SDS011;40710;51.120;13.136;2024-03-02T01:39:01;38.65;;;38.00;;
54328;SDS011;40710;51.120;13.136;2024-03-02T01:41:25;39.82;;;38.93;;
54328;SDS011;40710;51.120;13.136;2024-03-02T01:43:50;39.12;;;38.37;;
54328;SDS011;40710;51.120;13.136;2024-03-02T01:46:15;39.69;;;38.81;;
54328;SDS011;40710;51.120;13.136;2024-03-02T01:48:39;40.36;;;39.37;;
54328;SDS011;40710;51.120;13.136;2024-03-02T01:51:04;38.26;;;37.62;;
54328;SDS011;40710;51.120;13.136;2024-03-02T01:53:30;38.97;;;38.27;;
54328;SDS011;40710;51.120;13.136;2024-03-02T01:55:55;38.07;;;37.31;;
54328;SDS011;40710;51.120;13.136;2024-03-02T01:58:19;37.88;;;36.95;;
54328;SDS011;40710;51.120;13.136;2024-03-02T02:00:44;38.06;;;37.11;;
54328;SDS011;40710;51.120;13.136;2024-03-02T02:03:09;36.69;;;36.08;;
54328;SDS011;40710;51.120;13.136;2024-03-02T02:05:34;38.21;;;37.30;;
54328;SDS011;40710;51.120;13.136;2024-03-02T02:07:59;37.95;;;36.90;;
54328;SDS011;40710;51.120;13.136;2024-03-02T02:10:25;38.05;;;37.20;;
54328;SDS011;40710;51.120;13.136;2024-03-02T02:12:50;37.81;;;36.77;;
54328;SDS011;40710;51.120;13.136;2024-03-02T02:15:48;37.02;;;36.11;;
54328;SDS011;40710;51.120;13.136;2024-03-02T02:18:05;37.60;;;36.69;;
54328;SDS011;40710;51.120;13.136;2024-03-02T02:20:30;37.99;;;37.03;;
54328;SDS011;40710;51.120;13.136;2024-03-02T02:22:58;38.69;;;37.88;;
54328;SDS011;40710;51.120;13.136;2024-03-02T02:25:25;37.24;;;36.46;;
54328;SDS011;40710;51.120;13.136;2024-03-02T02:27:50;37.80;;;36.97;;
54328;SDS011;40710;51.120;13.136;2024-03-02T02:30:18;37.01;;;36.32;;
54328;SDS011;40710;51.120;13.136;2024-03-02T02:32:44;37.48;;;36.84;;
54328;SDS011;40710;51.120;13.136;2024-03-02T02:35:08;37.83;;;37.00;;
54328;SDS011;40710;51.120;13.136;2024-03-02T02:37:33;38.98;;;37.96;;
54328;SDS011;40710;51.120;13.136;2024-03-02T02:39:57;38.46;;;37.58;;
54328;SDS011;40710;51.120;13.136;2024-03-02T02:42:22;39.30;;;38.30;;
54328;SDS011;40710;51.120;13.136;2024-03-02T02:44:46;38.68;;;37.91;;
54328;SDS011;40710;51.120;13.136;2024-03-02T02:47:11;39.39;;;38.61;;
54328;SDS011;40710;51.120;13.136;2024-03-02T02:49:35;39.70;;;38.78;;
54328;SDS011;40710;51.120;13.136;2024-03-02T02:52:00;39.08;;;38.23;;
54328;SDS011;40710;51.120;13.136;2024-03-02T02:54:24;38.88;;;37.98;;
54328;SDS011;40710;51.120;13.136;2024-03-02T02:56:49;38.17;;;37.31;;
54328;SDS011;40710;51.120;13.136;2024-03-02T02:59:13;38.25;;;37.32;;
54328;SDS011;40710;51.120;13.136;2024-03-02T03:01:38;38.21;;;37.25;;
54328;SDS011;40710;51.120;13.136;2024-03-02T03:04:03;37.59;;;36.73;;
54328;SDS011;40710;51.120;13.136;2024-03-02T03:06:27;38.10;;;37.24;;
54328;SDS011;40710;51.120;13.136;2024-03-02T03:08:52;38.52;;;37.50;;
54328;SDS011;40710;51.120;13.136;2024-03-02T03:11:16;38.59;;;37.74;;
54328;SDS011;40710;51.120;13.136;2024-03-02T03:13:41;38.74;;;37.84;;
54328;SDS011;40710;51.120;13.136;2024-03-02T03:16:05;38.85;;;37.66;;
54328;SDS011;40710;51.120;13.136;2024-03-02T03:18:30;39.12;;;38.14;;
54328;SDS011;40710;51.120;13.136;2024-03-02T03:20:54;38.34;;;37.41;;
54328;SDS011;40710;51.120;13.136;2024-03-02T03:23:19;38.67;;;37.73;;
54328;SDS011;40710;51.120;13.136;2024-03-02T03:25:44;38.26;;;37.36;;
54328;SDS011;40710;51.120;13.136;2024-03-02T03:28:09;39.21;;;38.08;;
54328;SDS011;40710;51.120;13.136;2024-03-02T03:30:34;38.21;;;37.49;;
54328;SDS011;40710;51.120;13.136;2024-03-02T03:32:59;38.02;;;37.24;;
54328;SDS011;40710;51.120;13.136;2024-03-02T03:35:23;38.99;;;37.87;;
54328;SDS011;40710;51.120;13.136;2024-03-02T03:37:48;38.43;;;37.52;;
54328;SDS011;40710;51.120;13.136;2024-03-02T03:40:12;39.01;;;38.10;;
54328;SDS011;40710;51.120;13.136;2024-03-02T03:42:38;38.06;;;37.16;;
54328;SDS011;40710;51.120;13.136;2024-03-02T03:45:03;38.60;;;37.60;;
54328;SDS011;40710;51.120;13.136;2024-03-02T03:47:28;37.88;;;37.03;;
54328;SDS011;40710;51.120;13.136;2024-03-02T03:49:53;39.53;;;38.75;;
54328;SDS011;40710;51.120;13.136;2024-03-02T03:52:17;39.02;;;38.30;;
54328;SDS011;40710;51.120;13.136;2024-03-02T03:54:42;38.57;;;37.71;;
54328;SDS011;40710;51.120;13.136;2024-03-02T03:57:07;37.29;;;36.54;;
54328;SDS011;40710;51.120;13.136;2024-03-02T03:59:31;38.12;;;37.12;;
54328;SDS011;40710;51.120;13.136;2024-03-02T04:01:56;37.94;;;36.89;;
54328;SDS011;40710;51.120;13.136;2024-03-02T04:04:20;37.36;;;36.38;;
54328;SDS011;40710;51.120;13.136;2024-03-02T04:06:45;38.08;;;37.35;;
54328;SDS011;40710;51.120;13.136;2024-03-02T04:09:09;38.55;;;37.73;;
54328;SDS011;40710;51.120;13.136;2024-03-02T04:11:34;38.93;;;37.99;;
54328;SDS011;40710;51.120;13.136;2024-03-02T04:13:58;37.17;;;36.43;;
54328;SDS011;40710;51.120;13.136;2024-03-02T04:16:23;37.08;;;36.30;;
54328;SDS011;40710;51.120;13.136;2024-03-02T04:18:47;37.89;;;36.96;;
54328;SDS011;40710;51.120;13.136;2024-03-02T04:21:12;39.11;;;37.85;;
54328;SDS011;40710;51.120;13.136;2024-03-02T04:23:36;36.90;;;36.05;;
54328;SDS011;40710;51.120;13.136;2024-03-02T04:26:01;36.44;;;35.81;;
54328;SDS011;40710;51.120;13.136;2024-03-02T04:28:26;37.02;;;36.29;;
54328;SDS011;40710;51.120;13.136;2024-03-02T04:30:50;37.47;;;36.56;;
54328;SDS011;40710;51.120;13.136;2024-03-02T04:33:15;36.53;;;35.43;;
54328;SDS011;40710;51.120;13.136;2024-03-02T04:35:39;36.59;;;35.76;;
54328;SDS011;40710;51.120;13.136;2024-03-02T04:38:04;39.16;;;38.30;;
54328;SDS011;40710;51.120;13.136;2024-03-02T04:40:28;39.07;;;38.12;;
54328;SDS011;40710;51.120;13.136;2024-03-02T04:42:53;40.08;;;38.93;;
54328;SDS011;40710;51.120;13.136;2024-03-02T04:45:17;39.19;;;38.42;;
54328;SDS011;40710;51.120;13.136;2024-03-02T04:47:42;39.05;;;38.35;;
54328;SDS011;40710;51.120;13.136;2024-03-02T04:50:06;38.24;;;37.13;;
54328;SDS011;40710;51.120;13.136;2024-03-02T04:52:31;39.45;;;38.25;;
54328;SDS011;40710;51.120;13.136;2024-03-02T04:54:56;39.01;;;37.90;;
54328;SDS011;40710;51.120;13.136;2024-03-02T04:57:39;38.66;;;37.78;;
54328;SDS011;40710;51.120;13.136;2024-03-02T05:00:04;38.22;;;37.31;;
54328;SDS011;40710;51.120;13.136;2024-03-02T05:02:31;38.13;;;37.29;;
54328;SDS011;40710;51.120;13.136;2024-03-02T05:04:55;37.41;;;36.65;;
54328;SDS011;40710;51.120;13.136;2024-03-02T05:07:20;37.30;;;36.37;;
54328;SDS011;40710;51.120;13.136;2024-03-02T05:09:45;37.33;;;36.48;;
54328;SDS011;40710;51.120;13.136;2024-03-02T05:12:09;35.88;;;35.04;;
54328;SDS011;40710;51.120;13.136;2024-03-02T05:14:52;37.66;;;36.73;;
54328;SDS011;40710;51.120;13.136;2024-03-02T05:17:17;37.02;;;36.17;;
54328;SDS011;40710;51.120;13.136;2024-03-02T05:19:42;37.75;;;36.63;;
54328;SDS011;40710;51.120;13.136;2024-03-02T05:22:06;37.13;;;36.05;;
54328;SDS011;40710;51.120;13.136;2024-03-02T05:24:31;37.20;;;36.38;;
54328;SDS011;40710;51.120;13.136;2024-03-02T05:26:55;37.80;;;36.86;;
54328;SDS011;40710;51.120;13.136;2024-03-02T05:29:20;36.79;;;35.75;;
54328;SDS011;40710;51.120;13.136;2024-03-02T05:31:45;37.10;;;36.03;;
54328;SDS011;40710;51.120;13.136;2024-03-02T05:34:09;36.72;;;35.88;;
54328;SDS011;40710;51.120;13.136;2024-03-02T05:36:34;37.87;;;36.77;;
54328;SDS011;40710;51.120;13.136;2024-03-02T05:38:58;36.75;;;36.17;;
54328;SDS011;40710;51.120;13.136;2024-03-02T05:41:23;37.92;;;37.06;;
54328;SDS011;40710;51.120;13.136;2024-03-02T05:43:48;36.17;;;35.33;;
54328;SDS011;40710;51.120;13.136;2024-03-02T05:46:13;36.79;;;35.80;;
54328;SDS011;40710;51.120;13.136;2024-03-02T05:48:38;37.03;;;36.15;;
54328;SDS011;40710;51.120;13.136;2024-03-02T05:51:02;37.82;;;36.78;;
54328;SDS011;40710;51.120;13.136;2024-03-02T05:53:27;38.34;;;37.30;;
54328;SDS011;40710;51.120;13.136;2024-03-02T05:55:52;37.87;;;36.88;;
54328;SDS011;40710;51.120;13.136;2024-03-02T05:58:19;37.98;;;36.69;;
54328;SDS011;40710;51.120;13.136;2024-03-02T06:01:03;37.54;;;36.55;;
54328;SDS011;40710;51.120;13.136;2024-03-02T06:03:28;39.76;;;38.75;;
54328;SDS011;40710;51.120;13.136;2024-03-02T06:05:53;38.46;;;37.47;;
54328;SDS011;40710;51.120;13.136;2024-03-02T06:08:18;37.29;;;36.53;;
54328;SDS011;40710;51.120;13.136;2024-03-02T06:10:43;38.56;;;37.55;;
54328;SDS011;40710;51.120;13.136;2024-03-02T06:13:07;38.19;;;37.10;;
54328;SDS011;40710;51.120;13.136;2024-03-02T06:15:32;38.78;;;37.72;;
54328;SDS011;40710;51.120;13.136;2024-03-02T06:17:57;38.08;;;36.89;;
54328;SDS011;40710;51.120;13.136;2024-03-02T06:20:21;36.70;;;35.89;;
54328;SDS011;40710;51.120;13.136;2024-03-02T06:22:46;37.39;;;36.56;;
54328;SDS011;40710;51.120;13.136;2024-03-02T06:25:11;37.25;;;36.54;;
54328;SDS011;40710;51.120;13.136;2024-03-02T06:27:35;37.32;;;36.47;;
54328;SDS011;40710;51.120;13.136;2024-03-02T06:30:00;37.46;;;36.71;;
54328;SDS011;40710;51.120;13.136;2024-03-02T06:32:24;36.55;;;35.83;;
54328;SDS011;40710;51.120;13.136;2024-03-02T06:34:49;35.69;;;34.90;;
54328;SDS011;40710;51.120;13.136;2024-03-02T06:37:13;37.25;;;36.23;;
54328;SDS011;40710;51.120;13.136;2024-03-02T06:39:40;36.75;;;35.91;;
54328;SDS011;40710;51.120;13.136;2024-03-02T06:42:04;37.38;;;36.33;;
54328;SDS011;40710;51.120;13.136;2024-03-02T06:44:29;38.74;;;37.53;;
54328;SDS011;40710;51.120;13.136;2024-03-02T06:46:53;38.50;;;37.37;;
54328;SDS011;40710;51.120;13.136;2024-03-02T06:49:18;39.37;;;38.32;;
54328;SDS011;40710;51.120;13.136;2024-03-02T06:51:42;37.58;;;36.57;;
54328;SDS011;40710;51.120;13.136;2024-03-02T06:54:07;37.35;;;36.30;;
54328;SDS011;40710;51.120;13.136;2024-03-02T06:56:31;37.07;;;35.84;;
54328;SDS011;40710;51.120;13.136;2024-03-02T06:58:57;36.15;;;35.34;;
54328;SDS011;40710;51.120;13.136;2024-03-02T07:01:21;36.02;;;35.16;;
54328;SDS011;40710;51.120;13.136;2024-03-02T07:03:46;36.14;;;35.27;;
54328;SDS011;40710;51.120;13.136;2024-03-02T07:06:10;35.61;;;34.83;;
54328;SDS011;40710;51.120;13.136;2024-03-02T07:08:35;35.30;;;34.58;;
54328;SDS011;40710;51.120;13.136;2024-03-02T07:10:59;34.83;;;34.02;;
54328;SDS011;40710;51.120;13.136;2024-03-02T07:13:24;35.22;;;34.46;;
54328;SDS011;40710;51.120;13.136;2024-03-02T07:15:49;36.21;;;34.90;;
54328;SDS011;40710;51.120;13.136;2024-03-02T07:18:37;35.49;;;34.57;;
54328;SDS011;40710;51.120;13.136;2024-03-02T07:21:05;33.83;;;33.11;;
54328;SDS011;40710;51.120;13.136;2024-03-02T07:23:30;34.75;;;34.11;;
54328;SDS011;40710;51.120;13.136;2024-03-02T07:25:55;36.55;;;35.50;;
54328;SDS011;40710;51.120;13.136;2024-03-02T07:28:20;34.71;;;33.98;;
54328;SDS011;40710;51.120;13.136;2024-03-02T07:30:45;34.33;;;33.59;;
54328;SDS011;40710;51.120;13.136;2024-03-02T07:33:10;33.76;;;32.99;;
54328;SDS011;40710;51.120;13.136;2024-03-02T07:35:35;34.22;;;33.46;;
54328;SDS011;40710;51.120;13.136;2024-03-02T07:37:59;34.52;;;33.75;;
54328;SDS011;40710;51.120;13.136;2024-03-02T07:40:24;34.84;;;34.08;;
54328;SDS011;40710;51.120;13.136;2024-03-02T07:42:49;35.08;;;34.22;;
54328;SDS011;40710;51.120;13.136;2024-03-02T07:45:13;34.32;;;33.35;;
54328;SDS011;40710;51.120;13.136;2024-03-02T07:47:38;33.38;;;32.57;;
54328;SDS011;40710;51.120;13.136;2024-03-02T07:50:02;33.85;;;33.23;;
54328;SDS011;40710;51.120;13.136;2024-03-02T07:52:30;35.54;;;34.71;;
54328;SDS011;40710;51.120;13.136;2024-03-02T07:54:54;35.67;;;34.87;;
54328;SDS011;40710;51.120;13.136;2024-03-02T07:57:19;35.57;;;34.87;;
54328;SDS011;40710;51.120;13.136;2024-03-02T07:59:44;34.32;;;33.77;;
54328;SDS011;40710;51.120;13.136;2024-03-02T08:02:08;34.32;;;33.39;;
54328;SDS011;40710;51.120;13.136;2024-03-02T08:04:34;33.10;;;32.50;;
54328;SDS011;40710;51.120;13.136;2024-03-02T08:07:00;32.43;;;31.82;;
54328;SDS011;40710;51.120;13.136;2024-03-02T08:09:24;33.63;;;32.56;;
54328;SDS011;40710;51.120;13.136;2024-03-02T08:11:50;32.44;;;31.69;;
54328;SDS011;40710;51.120;13.136;2024-03-02T08:14:14;31.90;;;30.97;;
54328;SDS011;40710;51.120;13.136;2024-03-02T08:16:39;31.85;;;31.05;;
54328;SDS011;40710;51.120;13.136;2024-03-02T08:19:04;30.09;;;29.56;;
54328;SDS011;40710;51.120;13.136;2024-03-02T08:21:29;30.64;;;29.95;;
54328;SDS011;40710;51.120;13.136;2024-03-02T08:23:54;30.08;;;29.52;;
54328;SDS011;40710;51.120;13.136;2024-03-02T08:26:19;29.67;;;29.24;;
54328;SDS011;40710;51.120;13.136;2024-03-02T08:28:43;29.44;;;28.86;;
54328;SDS011;40710;51.120;13.136;2024-03-02T08:31:10;29.54;;;29.00;;
54328;SDS011;40710;51.120;13.136;2024-03-02T08:33:34;28.59;;;28.07;;
54328;SDS011;40710;51.120;13.136;2024-03-02T08:35:59;39.98;;;38.82;;
54328;SDS011;40710;51.120;13.136;2024-03-02T08:38:24;41.84;;;40.71;;
54328;SDS011;40710;51.120;13.136;2024-03-02T08:40:49;28.60;;;28.13;;
54328;SDS011;40710;51.120;13.136;2024-03-02T08:43:14;26.49;;;25.99;;
54328;SDS011;40710;51.120;13.136;2024-03-02T08:45:39;25.51;;;25.21;;
54328;SDS011;40710;51.120;13.136;2024-03-02T08:48:04;27.43;;;26.96;;
54328;SDS011;40710;51.120;13.136;2024-03-02T08:50:30;26.74;;;26.18;;
54328;SDS011;40710;51.120;13.136;2024-03-02T08:52:55;24.99;;;24.74;;
54328;SDS011;40710;51.120;13.136;2024-03-02T08:55:19;26.51;;;26.25;;
54328;SDS011;40710;51.120;13.136;2024-03-02T08:57:44;34.05;;;32.98;;
54328;SDS011;40710;51.120;13.136;2024-03-02T09:00:08;37.18;;;36.01;;
54328;SDS011;40710;51.120;13.136;2024-03-02T09:02:33;31.33;;;30.54;;
54328;SDS011;40710;51.120;13.136;2024-03-02T09:04:58;23.49;;;23.25;;
54328;SDS011;40710;51.120;13.136;2024-03-02T09:07:23;24.12;;;23.53;;
54328;SDS011;40710;51.120;13.136;2024-03-02T09:09:48;24.73;;;24.18;;
54328;SDS011;40710;51.120;13.136;2024-03-02T09:12:12;23.73;;;23.24;;
54328;SDS011;40710;51.120;13.136;2024-03-02T09:14:37;23.48;;;23.15;;
54328;SDS011;40710;51.120;13.136;2024-03-02T09:17:02;23.22;;;22.76;;
54328;SDS011;40710;51.120;13.136;2024-03-02T09:19:27;23.45;;;22.85;;
54328;SDS011;40710;51.120;13.136;2024-03-02T09:21:52;22.64;;;22.21;;
54328;SDS011;40710;51.120;13.136;2024-03-02T09:24:17;23.12;;;22.63;;
54328;SDS011;40710;51.120;13.136;2024-03-02T09:26:41;22.55;;;22.48;;
54328;SDS011;40710;51.120;13.136;2024-03-02T09:29:06;22.78;;;22.55;;
54328;SDS011;40710;51.120;13.136;2024-03-02T09:31:30;22.65;;;22.36;;
54328;SDS011;40710;51.120;13.136;2024-03-02T09:33:55;22.00;;;21.50;;
54328;SDS011;40710;51.120;13.136;2024-03-02T09:36:20;22.94;;;22.34;;
54328;SDS011;40710;51.120;13.136;2024-03-02T09:38:46;22.20;;;21.88;;
54328;SDS011;40710;51.120;13.136;2024-03-02T09:41:11;22.18;;;21.91;;
54328;SDS011;40710;51.120;13.136;2024-03-02T09:43:36;21.54;;;21.23;;
54328;SDS011;40710;51.120;13.136;2024-03-02T09:46:01;21.62;;;21.48;;
54328;SDS011;40710;51.120;13.136;2024-03-02T09:48:26;21.96;;;21.54;;
54328;SDS011;40710;51.120;13.136;2024-03-02T09:50:51;21.38;;;21.09;;
54328;SDS011;40710;51.120;13.136;2024-03-02T09:53:15;20.94;;;20.66;;
54328;SDS011;40710;51.120;13.136;2024-03-02T09:55:40;22.28;;;21.83;;
54328;SDS011;40710;51.120;13.136;2024-03-02T09:58:08;24.21;;;23.74;;
54328;SDS011;40710;51.120;13.136;2024-03-02T10:00:32;23.87;;;23.58;;
54328;SDS011;40710;51.120;13.136;2024-03-02T10:02:57;20.51;;;20.34;;
54328;SDS011;40710;51.120;13.136;2024-03-02T10:05:23;19.33;;;19.17;;
54328;SDS011;40710;51.120;13.136;2024-03-02T10:07:59;24.02;;;23.72;;
54328;SDS011;40710;51.120;13.136;2024-03-02T10:10:26;20.17;;;19.81;;
54328;SDS011;40710;51.120;13.136;2024-03-02T10:13:03;18.54;;;18.26;;
54328;SDS011;40710;51.120;13.136;2024-03-02T10:15:29;18.88;;;18.74;;
54328;SDS011;40710;51.120;13.136;2024-03-02T10:17:54;18.93;;;18.74;;
54328;SDS011;40710;51.120;13.136;2024-03-02T10:20:22;19.21;;;19.05;;
54328;SDS011;40710;51.120;13.136;2024-03-02T10:22:50;19.48;;;19.02;;
54328;SDS011;40710;51.120;13.136;2024-03-02T10:25:30;19.09;;;18.76;;
54328;SDS011;40710;51.120;13.136;2024-03-02T10:27:59;18.88;;;18.77;;
54328;SDS011;40710;51.120;13.136;2024-03-02T10:30:24;19.17;;;18.95;;
54328;SDS011;40710;51.120;13.136;2024-03-02T10:32:49;18.76;;;18.40;;
54328;SDS011;40710;51.120;13.136;2024-03-02T10:35:14;18.39;;;18.19;;
54328;SDS011;40710;51.120;13.136;2024-03-02T10:37:39;18.89;;;18.61;;
54328;SDS011;40710;51.120;13.136;2024-03-02T10:40:04;18.74;;;18.46;;
54328;SDS011;40710;51.120;13.136;2024-03-02T10:42:30;17.78;;;17.65;;
54328;SDS011;40710;51.120;13.136;2024-03-02T10:44:54;18.06;;;17.76;;
54328;SDS011;40710;51.120;13.136;2024-03-02T10:47:20;17.06;;;17.01;;
54328;SDS011;40710;51.120;13.136;2024-03-02T10:49:46;17.26;;;17.17;;
54328;SDS011;40710;51.120;13.136;2024-03-02T10:52:15;17.09;;;17.04;;
54328;SDS011;40710;51.120;13.136;2024-03-02T10:54:41;17.37;;;17.20;;
54328;SDS011;40710;51.120;13.136;2024-03-02T10:57:06;17.33;;;17.18;;
54328;SDS011;40710;51.120;13.136;2024-03-02T10:59:34;17.57;;;17.22;;
54328;SDS011;40710;51.120;13.136;2024-03-02T11:02:01;16.95;;;16.65;;
54328;SDS011;40710;51.120;13.136;2024-03-02T11:04:28;16.08;;;15.76;;
54328;SDS011;40710;51.120;13.136;2024-03-02T11:06:56;15.60;;;15.50;;
54328;SDS011;40710;51.120;13.136;2024-03-02T11:09:32;16.28;;;15.85;;
54328;SDS011;40710;51.120;13.136;2024-03-02T11:12:12;15.07;;;14.82;;
54328;SDS011;40710;51.120;13.136;2024-03-02T11:14:43;15.90;;;15.71;;
54328;SDS011;40710;51.120;13.136;2024-03-02T11:17:07;16.30;;;15.84;;
54328;SDS011;40710;51.120;13.136;2024-03-02T11:19:33;18.01;;;17.76;;
54328;SDS011;40710;51.120;13.136;2024-03-02T11:21:58;15.77;;;15.47;;
54328;SDS011;40710;51.120;13.136;2024-03-02T11:26:49;13.22;;;13.08;;
54328;SDS011;40710;51.120;13.136;2024-03-02T11:32:03;15.08;;;14.72;;
54328;SDS011;40710;51.120;13.136;2024-03-02T11:34:35;16.50;;;16.18;;
54328;SDS011;40710;51.120;13.136;2024-03-02T11:37:01;16.34;;;15.93;;
54328;SDS011;40710;51.120;13.136;2024-03-02T11:39:26;16.66;;;16.28;;
54328;SDS011;40710;51.120;13.136;2024-03-02T11:41:51;16.27;;;16.01;;
54328;SDS011;40710;51.120;13.136;2024-03-02T11:44:16;15.71;;;15.38;;
54328;SDS011;40710;51.120;13.136;2024-03-02T11:46:41;15.52;;;15.19;;
54328;SDS011;40710;51.120;13.136;2024-03-02T11:49:09;14.81;;;14.61;;
54328;SDS011;40710;51.120;13.136;2024-03-02T11:51:34;14.69;;;14.54;;
54328;SDS011;40710;51.120;13.136;2024-03-02T11:53:59;14.32;;;14.22;;
54328;SDS011;40710;51.120;13.136;2024-03-02T11:56:27;14.09;;;14.02;;
54328;SDS011;40710;51.120;13.136;2024-03-02T11:58:54;13.63;;;13.55;;
54328;SDS011;40710;51.120;13.136;2024-03-02T12:01:19;14.12;;;13.97;;
54328;SDS011;40710;51.120;13.136;2024-03-02T12:03:44;11.71;;;11.69;;
54328;SDS011;40710;51.120;13.136;2024-03-02T12:06:09;13.02;;;12.95;;
54328;SDS011;40710;51.120;13.136;2024-03-02T12:08:37;16.87;;;16.56;;
54328;SDS011;40710;51.120;13.136;2024-03-02T12:11:02;12.10;;;12.09;;
54328;SDS011;40710;51.120;13.136;2024-03-02T12:13:26;10.10;;;10.10;;
54328;SDS011;40710;51.120;13.136;2024-03-02T12:15:53;9.45;;;9.40;;
54328;SDS011;40710;51.120;13.136;2024-03-02T12:18:22;8.90;;;8.90;;
54328;SDS011;40710;51.120;13.136;2024-03-02T12:20:46;9.12;;;9.09;;
54328;SDS011;40710;51.120;13.136;2024-03-02T12:23:13;8.62;;;8.62;;
54328;SDS011;40710;51.120;13.136;2024-03-02T12:25:38;8.14;;;8.14;;
54328;SDS011;40710;51.120;13.136;2024-03-02T12:28:03;7.61;;;7.61;;
54328;SDS011;40710;51.120;13.136;2024-03-02T12:30:32;7.36;;;7.36;;
54328;SDS011;40710;51.120;13.136;2024-03-02T12:32:59;6.73;;;6.73;;
54328;SDS011;40710;51.120;13.136;2024-03-02T12:35:24;5.92;;;5.92;;
54328;SDS011;40710;51.120;13.136;2024-03-02T12:37:50;5.84;;;5.84;;
54328;SDS011;40710;51.120;13.136;2024-03-02T12:40:17;5.37;;;5.37;;
54328;SDS011;40710;51.120;13.136;2024-03-02T12:42:43;5.85;;;5.85;;
54328;SDS011;40710;51.120;13.136;2024-03-02T12:45:09;5.63;;;5.63;;
54328;SDS011;40710;51.120;13.136;2024-03-02T12:47:35;5.82;;;5.82;;
54328;SDS011;40710;51.120;13.136;2024-03-02T12:50:00;6.38;;;6.38;;
54328;SDS011;40710;51.120;13.136;2024-03-02T12:52:25;6.22;;;6.22;;
54328;SDS011;40710;51.120;13.136;2024-03-02T12:54:50;6.44;;;6.44;;
54328;SDS011;40710;51.120;13.136;2024-03-02T12:57:18;6.39;;;6.39;;
54328;SDS011;40710;51.120;13.136;2024-03-02T12:59:45;11.62;;;11.59;;
54328;SDS011;40710;51.120;13.136;2024-03-02T13:02:19;10.37;;;10.17;;
54328;SDS011;40710;51.120;13.136;2024-03-02T13:04:44;7.82;;;7.73;;
54328;SDS011;40710;51.120;13.136;2024-03-02T13:07:08;7.52;;;7.52;;
54328;SDS011;40710;51.120;13.136;2024-03-02T13:09:37;7.43;;;7.42;;
54328;SDS011;40710;51.120;13.136;2024-03-02T13:12:02;6.62;;;6.58;;
54328;SDS011;40710;51.120;13.136;2024-03-02T13:14:28;6.69;;;6.63;;
54328;SDS011;40710;51.120;13.136;2024-03-02T13:16:52;6.05;;;6.05;;
54328;SDS011;40710;51.120;13.136;2024-03-02T13:19:17;7.50;;;7.50;;
54328;SDS011;40710;51.120;13.136;2024-03-02T13:21:43;7.59;;;7.59;;
54328;SDS011;40710;51.120;13.136;2024-03-02T13:24:07;7.25;;;7.25;;
54328;SDS011;40710;51.120;13.136;2024-03-02T13:26:32;9.20;;;9.19;;
54328;SDS011;40710;51.120;13.136;2024-03-02T13:28:57;8.42;;;8.41;;
54328;SDS011;40710;51.120;13.136;2024-03-02T13:31:21;8.14;;;8.14;;
54328;SDS011;40710;51.120;13.136;2024-03-02T13:33:46;7.05;;;7.04;;
54328;SDS011;40710;51.120;13.136;2024-03-02T13:36:11;8.08;;;8.03;;
54328;SDS011;40710;51.120;13.136;2024-03-02T13:38:35;8.45;;;8.28;;
54328;SDS011;40710;51.120;13.136;2024-03-02T13:41:00;8.74;;;8.62;;
54328;SDS011;40710;51.120;13.136;2024-03-02T13:43:25;8.80;;;8.75;;
54328;SDS011;40710;51.120;13.136;2024-03-02T13:45:49;10.16;;;10.02;;
54328;SDS011;40710;51.120;13.136;2024-03-02T13:48:16;10.30;;;10.29;;
54328;SDS011;40710;51.120;13.136;2024-03-02T13:50:40;11.24;;;11.21;;
54328;SDS011;40710;51.120;13.136;2024-03-02T13:53:05;13.72;;;13.52;;
54328;SDS011;40710;51.120;13.136;2024-03-02T13:55:31;14.01;;;13.99;;
54328;SDS011;40710;51.120;13.136;2024-03-02T13:57:55;17.33;;;17.19;;
54328;SDS011;40710;51.120;13.136;2024-03-02T14:00:20;30.47;;;29.74;;
54328;SDS011;40710;51.120;13.136;2024-03-02T14:02:45;15.54;;;15.54;;
54328;SDS011;40710;51.120;13.136;2024-03-02T14:05:10;15.28;;;15.28;;
54328;SDS011;40710;51.120;13.136;2024-03-02T14:07:36;15.04;;;14.98;;
54328;SDS011;40710;51.120;13.136;2024-03-02T14:10:01;15.42;;;15.20;;
54328;SDS011;40710;51.120;13.136;2024-03-02T14:12:26;15.27;;;15.26;;